sensor_id;sensor_type;location;lat;lon;timestamp;P1;durP1;ratioP1;P2;durP2;ratioP2
3712;SDS011;1872;51.406;6.856;2022-08-21T00:01:16;8.90;;;7.53;;
3712;SDS011;1872;51.406;6.856;2022-08-21T00:03:45;8.27;;;7.43;;
3712;SDS011;1872;51.406;6.856;2022-08-21T00:06:11;7.50;;;6.77;;
3712;SDS011;1872;51.406;6.856;2022-08-21T00:08:37;11.77;;;8.93;;
3712;SDS011;1872;51.406;6.856;2022-08-21T00:11:03;8.63;;;7.23;;
3712;SDS011;1872;51.406;6.856;2022-08-21T00:13:32;8.30;;;7.40;;
3712;SDS011;1872;51.406;6.856;2022-08-21T00:15:58;8.70;;;7.60;;
3712;SDS011;1872;51.406;6.856;2022-08-21T00:18:24;9.13;;;8.33;;
3712;SDS011;1872;51.406;6.856;2022-08-21T00:20:50;8.60;;;7.20;;
3712;SDS011;1872;51.406;6.856;2022-08-21T00:23:16;8.93;;;8.03;;
3712;SDS011;1872;51.406;6.856;2022-08-21T00:25:42;8.97;;;8.07;;
3712;SDS011;1872;51.406;6.856;2022-08-21T00:28:09;10.47;;;8.73;;
3712;SDS011;1872;51.406;6.856;2022-08-21T00:30:38;11.10;;;9.00;;
3712;SDS011;1872;51.406;6.856;2022-08-21T00:33:04;8.67;;;7.77;;
3712;SDS011;1872;51.406;6.856;2022-08-21T00:35:32;9.17;;;8.13;;
3712;SDS011;1872;51.406;6.856;2022-08-21T00:38:05;8.90;;;8.10;;
3712;SDS011;1872;51.406;6.856;2022-08-21T00:40:36;9.20;;;7.80;;
3712;SDS011;1872;51.406;6.856;2022-08-21T00:43:09;8.17;;;7.40;;
3712;SDS011;1872;51.406;6.856;2022-08-21T00:45:36;8.03;;;7.13;;
3712;SDS011;1872;51.406;6.856;2022-08-21T00:48:03;9.97;;;7.97;;
3712;SDS011;1872;51.406;6.856;2022-08-21T00:50:31;7.87;;;6.63;;
3712;SDS011;1872;51.406;6.856;2022-08-21T00:52:58;8.37;;;6.73;;
3712;SDS011;1872;51.406;6.856;2022-08-21T00:55:26;9.77;;;8.13;;
3712;SDS011;1872;51.406;6.856;2022-08-21T00:57:54;9.03;;;8.07;;
3712;SDS011;1872;51.406;6.856;2022-08-21T01:00:23;8.27;;;7.47;;
3712;SDS011;1872;51.406;6.856;2022-08-21T01:02:55;9.27;;;7.90;;
3712;SDS011;1872;51.406;6.856;2022-08-21T01:05:23;8.93;;;8.03;;
3712;SDS011;1872;51.406;6.856;2022-08-21T01:07:49;12.80;;;7.83;;
3712;SDS011;1872;51.406;6.856;2022-08-21T01:10:15;8.20;;;7.40;;
3712;SDS011;1872;51.406;6.856;2022-08-21T01:12:41;10.47;;;8.43;;
3712;SDS011;1872;51.406;6.856;2022-08-21T01:15:08;8.53;;;7.80;;
3712;SDS011;1872;51.406;6.856;2022-08-21T01:17:34;10.60;;;8.30;;
3712;SDS011;1872;51.406;6.856;2022-08-21T01:20:03;8.10;;;7.40;;
3712;SDS011;1872;51.406;6.856;2022-08-21T01:22:31;11.70;;;8.70;;
3712;SDS011;1872;51.406;6.856;2022-08-21T01:24:57;8.70;;;7.90;;
3712;SDS011;1872;51.406;6.856;2022-08-21T01:27:23;9.00;;;7.87;;
3712;SDS011;1872;51.406;6.856;2022-08-21T01:32:23;8.97;;;8.07;;
3712;SDS011;1872;51.406;6.856;2022-08-21T01:34:49;8.47;;;7.60;;
3712;SDS011;1872;51.406;6.856;2022-08-21T01:37:16;10.23;;;8.07;;
3712;SDS011;1872;51.406;6.856;2022-08-21T01:39:44;9.90;;;8.20;;
3712;SDS011;1872;51.406;6.856;2022-08-21T01:42:11;9.83;;;8.40;;
3712;SDS011;1872;51.406;6.856;2022-08-21T01:44:38;8.07;;;7.27;;
3712;SDS011;1872;51.406;6.856;2022-08-21T01:47:05;10.07;;;8.93;;
3712;SDS011;1872;51.406;6.856;2022-08-21T01:49:32;11.23;;;9.37;;
3712;SDS011;1872;51.406;6.856;2022-08-21T01:51:58;11.90;;;9.00;;
3712;SDS011;1872;51.406;6.856;2022-08-21T01:54:24;9.23;;;7.30;;
3712;SDS011;1872;51.406;6.856;2022-08-21T01:56:51;8.43;;;7.40;;
3712;SDS011;1872;51.406;6.856;2022-08-21T01:59:18;9.83;;;7.87;;
3712;SDS011;1872;51.406;6.856;2022-08-21T02:01:44;10.37;;;8.90;;
3712;SDS011;1872;51.406;6.856;2022-08-21T02:04:10;13.03;;;8.83;;
3712;SDS011;1872;51.406;6.856;2022-08-21T02:06:36;10.97;;;7.70;;
3712;SDS011;1872;51.406;6.856;2022-08-21T02:09:05;9.07;;;8.17;;
3712;SDS011;1872;51.406;6.856;2022-08-21T02:11:33;8.13;;;7.47;;
3712;SDS011;1872;51.406;6.856;2022-08-21T02:13:59;9.02;;;7.00;;
3712;SDS011;1872;51.406;6.856;2022-08-21T02:16:24;11.50;;;9.67;;
3712;SDS011;1872;51.406;6.856;2022-08-21T02:18:50;9.10;;;8.20;;
3712;SDS011;1872;51.406;6.856;2022-08-21T02:21:16;8.47;;;7.60;;
3712;SDS011;1872;51.406;6.856;2022-08-21T02:23:42;9.53;;;7.63;;
3712;SDS011;1872;51.406;6.856;2022-08-21T02:26:08;8.23;;;7.43;;
3712;SDS011;1872;51.406;6.856;2022-08-21T02:28:34;8.57;;;7.70;;
3712;SDS011;1872;51.406;6.856;2022-08-21T02:31:00;9.57;;;8.40;;
3712;SDS011;1872;51.406;6.856;2022-08-21T02:33:27;8.50;;;7.73;;
3712;SDS011;1872;51.406;6.856;2022-08-21T02:35:54;9.10;;;7.70;;
3712;SDS011;1872;51.406;6.856;2022-08-21T02:38:25;8.47;;;7.67;;
3712;SDS011;1872;51.406;6.856;2022-08-21T02:40:53;8.27;;;7.30;;
3712;SDS011;1872;51.406;6.856;2022-08-21T02:43:22;9.87;;;7.73;;
3712;SDS011;1872;51.406;6.856;2022-08-21T02:45:49;8.37;;;7.63;;
3712;SDS011;1872;51.406;6.856;2022-08-21T02:48:17;9.03;;;7.93;;
3712;SDS011;1872;51.406;6.856;2022-08-21T02:51:07;10.13;;;7.47;;
3712;SDS011;1872;51.406;6.856;2022-08-21T02:53:34;11.53;;;8.00;;
3712;SDS011;1872;51.406;6.856;2022-08-21T02:56:01;8.03;;;7.27;;
3712;SDS011;1872;51.406;6.856;2022-08-21T02:58:30;9.70;;;8.80;;
3712;SDS011;1872;51.406;6.856;2022-08-21T03:00:57;9.30;;;7.70;;
3712;SDS011;1872;51.406;6.856;2022-08-21T03:03:24;12.40;;;9.20;;
3712;SDS011;1872;51.406;6.856;2022-08-21T03:05:51;8.90;;;7.90;;
3712;SDS011;1872;51.406;6.856;2022-08-21T03:08:18;13.80;;;9.03;;
3712;SDS011;1872;51.406;6.856;2022-08-21T03:10:45;12.03;;;9.57;;
3712;SDS011;1872;51.406;6.856;2022-08-21T03:13:13;12.47;;;9.23;;
3712;SDS011;1872;51.406;6.856;2022-08-21T03:15:39;11.33;;;9.87;;
3712;SDS011;1872;51.406;6.856;2022-08-21T03:18:06;10.57;;;8.97;;
3712;SDS011;1872;51.406;6.856;2022-08-21T03:20:33;12.67;;;9.47;;
3712;SDS011;1872;51.406;6.856;2022-08-21T03:23:00;10.60;;;8.80;;
3712;SDS011;1872;51.406;6.856;2022-08-21T03:25:27;11.73;;;10.43;;
3712;SDS011;1872;51.406;6.856;2022-08-21T03:27:52;10.73;;;9.17;;
3712;SDS011;1872;51.406;6.856;2022-08-21T03:30:21;13.93;;;10.00;;
3712;SDS011;1872;51.406;6.856;2022-08-21T03:32:47;12.80;;;9.93;;
3712;SDS011;1872;51.406;6.856;2022-08-21T03:35:13;12.77;;;9.40;;
3712;SDS011;1872;51.406;6.856;2022-08-21T03:37:39;11.03;;;9.03;;
3712;SDS011;1872;51.406;6.856;2022-08-21T03:40:06;10.73;;;9.67;;
3712;SDS011;1872;51.406;6.856;2022-08-21T03:42:33;13.60;;;10.73;;
3712;SDS011;1872;51.406;6.856;2022-08-21T03:44:59;10.80;;;9.70;;
3712;SDS011;1872;51.406;6.856;2022-08-21T03:47:26;12.23;;;11.03;;
3712;SDS011;1872;51.406;6.856;2022-08-21T03:49:52;11.60;;;10.40;;
3712;SDS011;1872;51.406;6.856;2022-08-21T03:52:19;12.60;;;10.90;;
3712;SDS011;1872;51.406;6.856;2022-08-21T03:54:45;13.20;;;11.20;;
3712;SDS011;1872;51.406;6.856;2022-08-21T03:57:11;17.77;;;10.50;;
3712;SDS011;1872;51.406;6.856;2022-08-21T03:59:37;14.67;;;10.57;;
3712;SDS011;1872;51.406;6.856;2022-08-21T04:02:04;11.83;;;10.73;;
3712;SDS011;1872;51.406;6.856;2022-08-21T04:04:32;13.20;;;10.73;;
3712;SDS011;1872;51.406;6.856;2022-08-21T04:06:58;12.57;;;11.27;;
3712;SDS011;1872;51.406;6.856;2022-08-21T04:09:24;11.80;;;10.70;;
3712;SDS011;1872;51.406;6.856;2022-08-21T04:11:50;13.40;;;10.50;;
3712;SDS011;1872;51.406;6.856;2022-08-21T04:14:16;15.07;;;11.60;;
3712;SDS011;1872;51.406;6.856;2022-08-21T04:16:43;12.03;;;10.90;;
3712;SDS011;1872;51.406;6.856;2022-08-21T04:19:09;14.50;;;12.40;;
3712;SDS011;1872;51.406;6.856;2022-08-21T04:21:36;15.83;;;11.50;;
3712;SDS011;1872;51.406;6.856;2022-08-21T04:24:03;14.53;;;12.10;;
3712;SDS011;1872;51.406;6.856;2022-08-21T04:26:32;14.27;;;11.97;;
3712;SDS011;1872;51.406;6.856;2022-08-21T04:28:59;13.00;;;11.00;;
3712;SDS011;1872;51.406;6.856;2022-08-21T04:31:25;14.47;;;11.60;;
3712;SDS011;1872;51.406;6.856;2022-08-21T04:33:51;14.67;;;12.90;;
3712;SDS011;1872;51.406;6.856;2022-08-21T04:36:17;18.97;;;12.40;;
3712;SDS011;1872;51.406;6.856;2022-08-21T04:38:42;15.07;;;12.23;;
3712;SDS011;1872;51.406;6.856;2022-08-21T04:41:08;16.30;;;13.07;;
3712;SDS011;1872;51.406;6.856;2022-08-21T04:43:34;12.77;;;10.73;;
3712;SDS011;1872;51.406;6.856;2022-08-21T04:46:00;13.60;;;11.50;;
3712;SDS011;1872;51.406;6.856;2022-08-21T04:48:25;13.97;;;10.80;;
3712;SDS011;1872;51.406;6.856;2022-08-21T04:50:53;10.37;;;9.30;;
3712;SDS011;1872;51.406;6.856;2022-08-21T04:59:03;13.20;;;11.20;;
3712;SDS011;1872;51.406;6.856;2022-08-21T05:01:32;14.73;;;10.77;;
3712;SDS011;1872;51.406;6.856;2022-08-21T05:04:00;17.37;;;12.00;;
3712;SDS011;1872;51.406;6.856;2022-08-21T05:06:29;15.47;;;11.37;;
3712;SDS011;1872;51.406;6.856;2022-08-21T05:08:59;15.50;;;13.00;;
3712;SDS011;1872;51.406;6.856;2022-08-21T05:11:26;15.97;;;14.20;;
3712;SDS011;1872;51.406;6.856;2022-08-21T05:13:52;16.03;;;14.33;;
3712;SDS011;1872;51.406;6.856;2022-08-21T05:16:18;20.13;;;14.43;;
3712;SDS011;1872;51.406;6.856;2022-08-21T05:18:44;18.70;;;14.20;;
3712;SDS011;1872;51.406;6.856;2022-08-21T05:21:10;16.60;;;14.53;;
3712;SDS011;1872;51.406;6.856;2022-08-21T05:23:36;19.23;;;15.03;;
3712;SDS011;1872;51.406;6.856;2022-08-21T05:26:02;15.43;;;13.83;;
3712;SDS011;1872;51.406;6.856;2022-08-21T05:28:29;18.97;;;15.30;;
3712;SDS011;1872;51.406;6.856;2022-08-21T05:30:55;19.13;;;15.23;;
3712;SDS011;1872;51.406;6.856;2022-08-21T05:33:21;16.40;;;14.40;;
3712;SDS011;1872;51.406;6.856;2022-08-21T05:35:49;18.23;;;14.40;;
3712;SDS011;1872;51.406;6.856;2022-08-21T05:38:16;22.17;;;16.70;;
3712;SDS011;1872;51.406;6.856;2022-08-21T05:40:42;20.93;;;14.60;;
3712;SDS011;1872;51.406;6.856;2022-08-21T05:43:09;19.90;;;15.90;;
3712;SDS011;1872;51.406;6.856;2022-08-21T05:45:34;19.40;;;14.67;;
3712;SDS011;1872;51.406;6.856;2022-08-21T05:48:20;18.83;;;15.90;;
3712;SDS011;1872;51.406;6.856;2022-08-21T05:50:47;19.97;;;16.07;;
3712;SDS011;1872;51.406;6.856;2022-08-21T05:53:15;21.20;;;14.97;;
3712;SDS011;1872;51.406;6.856;2022-08-21T05:55:45;17.90;;;15.13;;
3712;SDS011;1872;51.406;6.856;2022-08-21T05:58:15;18.00;;;14.50;;
3712;SDS011;1872;51.406;6.856;2022-08-21T06:00:43;20.87;;;14.73;;
3712;SDS011;1872;51.406;6.856;2022-08-21T06:03:14;22.63;;;15.60;;
3712;SDS011;1872;51.406;6.856;2022-08-21T06:05:42;18.97;;;16.17;;
3712;SDS011;1872;51.406;6.856;2022-08-21T06:08:08;20.20;;;13.97;;
3712;SDS011;1872;51.406;6.856;2022-08-21T06:10:34;18.17;;;14.90;;
3712;SDS011;1872;51.406;6.856;2022-08-21T06:12:59;19.17;;;13.20;;
3712;SDS011;1872;51.406;6.856;2022-08-21T06:15:25;17.60;;;14.33;;
3712;SDS011;1872;51.406;6.856;2022-08-21T06:17:52;22.00;;;15.53;;
3712;SDS011;1872;51.406;6.856;2022-08-21T06:20:19;17.83;;;14.67;;
3712;SDS011;1872;51.406;6.856;2022-08-21T06:22:45;15.67;;;14.03;;
3712;SDS011;1872;51.406;6.856;2022-08-21T06:25:11;15.27;;;13.60;;
3712;SDS011;1872;51.406;6.856;2022-08-21T06:27:37;15.03;;;13.53;;
3712;SDS011;1872;51.406;6.856;2022-08-21T06:30:03;15.93;;;13.70;;
3712;SDS011;1872;51.406;6.856;2022-08-21T06:32:30;18.07;;;13.23;;
3712;SDS011;1872;51.406;6.856;2022-08-21T06:34:56;13.63;;;12.17;;
3712;SDS011;1872;51.406;6.856;2022-08-21T06:37:21;12.93;;;11.63;;
3712;SDS011;1872;51.406;6.856;2022-08-21T06:39:49;13.43;;;10.70;;
3712;SDS011;1872;51.406;6.856;2022-08-21T06:42:16;14.37;;;11.90;;
3712;SDS011;1872;51.406;6.856;2022-08-21T06:44:42;12.60;;;11.33;;
3712;SDS011;1872;51.406;6.856;2022-08-21T06:47:08;12.83;;;10.20;;
3712;SDS011;1872;51.406;6.856;2022-08-21T06:49:35;15.03;;;9.53;;
3712;SDS011;1872;51.406;6.856;2022-08-21T06:52:01;12.50;;;10.10;;
3712;SDS011;1872;51.406;6.856;2022-08-21T06:54:28;12.17;;;10.40;;
3712;SDS011;1872;51.406;6.856;2022-08-21T06:56:55;12.13;;;10.37;;
3712;SDS011;1872;51.406;6.856;2022-08-21T06:59:21;11.77;;;9.20;;
3712;SDS011;1872;51.406;6.856;2022-08-21T07:01:49;12.90;;;8.50;;
3712;SDS011;1872;51.406;6.856;2022-08-21T07:04:14;11.20;;;7.03;;
3712;SDS011;1872;51.406;6.856;2022-08-21T07:06:40;8.60;;;7.27;;
3712;SDS011;1872;51.406;6.856;2022-08-21T07:09:06;10.67;;;8.00;;
3712;SDS011;1872;51.406;6.856;2022-08-21T07:11:32;9.37;;;8.10;;
3712;SDS011;1872;51.406;6.856;2022-08-21T07:13:57;6.97;;;6.30;;
3712;SDS011;1872;51.406;6.856;2022-08-21T07:16:23;6.67;;;5.90;;
3712;SDS011;1872;51.406;6.856;2022-08-21T07:18:49;8.73;;;6.10;;
3712;SDS011;1872;51.406;6.856;2022-08-21T07:21:15;5.70;;;5.17;;
3712;SDS011;1872;51.406;6.856;2022-08-21T07:23:45;7.53;;;5.23;;
3712;SDS011;1872;51.406;6.856;2022-08-21T07:26:16;7.23;;;6.57;;
3712;SDS011;1872;51.406;6.856;2022-08-21T07:28:43;5.20;;;4.70;;
3712;SDS011;1872;51.406;6.856;2022-08-21T07:31:09;6.33;;;5.23;;
3712;SDS011;1872;51.406;6.856;2022-08-21T07:33:38;5.90;;;5.00;;
3712;SDS011;1872;51.406;6.856;2022-08-21T07:36:05;5.20;;;4.27;;
3712;SDS011;1872;51.406;6.856;2022-08-21T07:38:31;6.80;;;3.90;;
3712;SDS011;1872;51.406;6.856;2022-08-21T07:40:57;6.43;;;4.10;;
3712;SDS011;1872;51.406;6.856;2022-08-21T07:43:26;4.20;;;3.80;;
3712;SDS011;1872;51.406;6.856;2022-08-21T07:45:53;4.23;;;3.83;;
3712;SDS011;1872;51.406;6.856;2022-08-21T07:48:20;7.63;;;3.50;;
3712;SDS011;1872;51.406;6.856;2022-08-21T07:50:46;7.13;;;4.07;;
3712;SDS011;1872;51.406;6.856;2022-08-21T07:53:12;5.73;;;4.10;;
3712;SDS011;1872;51.406;6.856;2022-08-21T07:55:38;5.70;;;5.10;;
3712;SDS011;1872;51.406;6.856;2022-08-21T07:58:04;4.40;;;3.67;;
3712;SDS011;1872;51.406;6.856;2022-08-21T08:00:29;6.47;;;4.20;;
3712;SDS011;1872;51.406;6.856;2022-08-21T08:02:56;6.93;;;4.57;;
3712;SDS011;1872;51.406;6.856;2022-08-21T08:05:23;3.83;;;3.53;;
3712;SDS011;1872;51.406;6.856;2022-08-21T08:07:53;5.30;;;3.90;;
3712;SDS011;1872;51.406;6.856;2022-08-21T08:10:19;3.90;;;3.50;;
3712;SDS011;1872;51.406;6.856;2022-08-21T08:12:48;3.47;;;3.17;;
3712;SDS011;1872;51.406;6.856;2022-08-21T08:15:15;8.70;;;4.20;;
3712;SDS011;1872;51.406;6.856;2022-08-21T08:17:42;7.30;;;4.10;;
3712;SDS011;1872;51.406;6.856;2022-08-21T08:20:09;4.23;;;3.83;;
3712;SDS011;1872;51.406;6.856;2022-08-21T08:22:38;4.93;;;3.60;;
3712;SDS011;1872;51.406;6.856;2022-08-21T08:25:05;5.63;;;4.00;;
3712;SDS011;1872;51.406;6.856;2022-08-21T08:27:32;5.73;;;3.53;;
3712;SDS011;1872;51.406;6.856;2022-08-21T08:29:58;3.97;;;2.80;;
3712;SDS011;1872;51.406;6.856;2022-08-21T08:32:23;4.23;;;2.93;;
3712;SDS011;1872;51.406;6.856;2022-08-21T08:34:49;4.50;;;3.40;;
3712;SDS011;1872;51.406;6.856;2022-08-21T08:37:16;3.90;;;3.03;;
3712;SDS011;1872;51.406;6.856;2022-08-21T08:39:44;3.47;;;2.83;;
3712;SDS011;1872;51.406;6.856;2022-08-21T08:42:34;3.40;;;2.47;;
3712;SDS011;1872;51.406;6.856;2022-08-21T08:45:11;3.10;;;2.20;;
3712;SDS011;1872;51.406;6.856;2022-08-21T08:47:44;3.10;;;2.67;;
3712;SDS011;1872;51.406;6.856;2022-08-21T08:50:26;5.17;;;2.73;;
3712;SDS011;1872;51.406;6.856;2022-08-21T08:53:06;2.97;;;2.20;;
3712;SDS011;1872;51.406;6.856;2022-08-21T08:55:42;2.23;;;1.60;;
3712;SDS011;1872;51.406;6.856;2022-08-21T08:58:16;2.33;;;2.23;;
3712;SDS011;1872;51.406;6.856;2022-08-21T09:00:48;2.80;;;2.10;;
3712;SDS011;1872;51.406;6.856;2022-08-21T09:03:16;2.17;;;2.00;;
3712;SDS011;1872;51.406;6.856;2022-08-21T09:08:48;3.00;;;2.30;;
3712;SDS011;1872;51.406;6.856;2022-08-21T09:14:32;3.20;;;2.90;;
3712;SDS011;1872;51.406;6.856;2022-08-21T09:23:14;4.17;;;2.50;;
3712;SDS011;1872;51.406;6.856;2022-08-21T09:28:33;2.40;;;1.90;;
3712;SDS011;1872;51.406;6.856;2022-08-21T09:31:00;2.73;;;2.30;;
3712;SDS011;1872;51.406;6.856;2022-08-21T09:33:30;2.90;;;1.93;;
3712;SDS011;1872;51.406;6.856;2022-08-21T09:35:56;2.30;;;2.10;;
3712;SDS011;1872;51.406;6.856;2022-08-21T09:38:33;2.43;;;2.23;;
3712;SDS011;1872;51.406;6.856;2022-08-21T09:41:05;1.83;;;1.73;;
3712;SDS011;1872;51.406;6.856;2022-08-21T09:43:34;5.73;;;2.23;;
3712;SDS011;1872;51.406;6.856;2022-08-21T09:46:06;2.00;;;1.90;;
3712;SDS011;1872;51.406;6.856;2022-08-21T09:48:53;2.20;;;2.00;;
3712;SDS011;1872;51.406;6.856;2022-08-21T09:51:23;4.17;;;2.93;;
3712;SDS011;1872;51.406;6.856;2022-08-21T09:53:56;2.07;;;1.93;;
3712;SDS011;1872;51.406;6.856;2022-08-21T09:56:40;3.67;;;1.80;;
3712;SDS011;1872;51.406;6.856;2022-08-21T09:59:37;2.30;;;2.10;;
3712;SDS011;1872;51.406;6.856;2022-08-21T10:02:19;3.57;;;2.50;;
3712;SDS011;1872;51.406;6.856;2022-08-21T10:04:54;1.93;;;1.70;;
3712;SDS011;1872;51.406;6.856;2022-08-21T10:07:26;2.27;;;2.07;;
3712;SDS011;1872;51.406;6.856;2022-08-21T10:10:13;2.97;;;1.97;;
3712;SDS011;1872;51.406;6.856;2022-08-21T10:12:50;3.40;;;1.80;;
3712;SDS011;1872;51.406;6.856;2022-08-21T10:18:20;1.83;;;1.73;;
3712;SDS011;1872;51.406;6.856;2022-08-21T10:21:04;4.33;;;1.70;;
3712;SDS011;1872;51.406;6.856;2022-08-21T10:29:45;1.70;;;1.60;;
3712;SDS011;1872;51.406;6.856;2022-08-21T10:43:25;2.73;;;1.80;;
3712;SDS011;1872;51.406;6.856;2022-08-21T10:57:31;2.60;;;2.07;;
3712;SDS011;1872;51.406;6.856;2022-08-21T11:00:11;3.70;;;2.10;;
3712;SDS011;1872;51.406;6.856;2022-08-21T11:05:14;1.97;;;1.70;;
3712;SDS011;1872;51.406;6.856;2022-08-21T11:07:56;2.63;;;1.90;;
3712;SDS011;1872;51.406;6.856;2022-08-21T11:10:28;1.60;;;1.50;;
3712;SDS011;1872;51.406;6.856;2022-08-21T11:13:01;3.40;;;2.43;;
3712;SDS011;1872;51.406;6.856;2022-08-21T11:15:43;3.70;;;3.40;;
3712;SDS011;1872;51.406;6.856;2022-08-21T11:20:54;3.67;;;2.30;;
3712;SDS011;1872;51.406;6.856;2022-08-21T11:24:12;2.63;;;2.07;;
3712;SDS011;1872;51.406;6.856;2022-08-21T11:26:30;3.10;;;1.70;;
3712;SDS011;1872;51.406;6.856;2022-08-21T11:32:01;2.60;;;2.13;;
3712;SDS011;1872;51.406;6.856;2022-08-21T11:34:47;2.77;;;2.57;;
3712;SDS011;1872;51.406;6.856;2022-08-21T11:40:17;2.87;;;2.03;;
3712;SDS011;1872;51.406;6.856;2022-08-21T11:43:20;2.40;;;2.03;;
3712;SDS011;1872;51.406;6.856;2022-08-21T11:46:00;3.83;;;2.00;;
3712;SDS011;1872;51.406;6.856;2022-08-21T11:48:35;4.97;;;3.00;;
3712;SDS011;1872;51.406;6.856;2022-08-21T11:51:07;13.73;;;8.37;;
3712;SDS011;1872;51.406;6.856;2022-08-21T11:56:25;18.33;;;11.00;;
3712;SDS011;1872;51.406;6.856;2022-08-21T11:58:57;4.00;;;3.60;;
3712;SDS011;1872;51.406;6.856;2022-08-21T12:01:36;2.97;;;2.30;;
3712;SDS011;1872;51.406;6.856;2022-08-21T12:04:15;13.93;;;9.73;;
3712;SDS011;1872;51.406;6.856;2022-08-21T12:06:52;36.27;;;20.40;;
3712;SDS011;1872;51.406;6.856;2022-08-21T12:11:59;2.60;;;2.40;;
3712;SDS011;1872;51.406;6.856;2022-08-21T12:14:34;21.70;;;16.47;;
3712;SDS011;1872;51.406;6.856;2022-08-21T12:17:07;6.13;;;5.40;;
3712;SDS011;1872;51.406;6.856;2022-08-21T12:19:34;19.67;;;11.80;;
3712;SDS011;1872;51.406;6.856;2022-08-21T12:24:36;5.00;;;3.30;;
3712;SDS011;1872;51.406;6.856;2022-08-21T12:32:57;10.10;;;7.67;;
3712;SDS011;1872;51.406;6.856;2022-08-21T12:35:27;10.13;;;6.23;;
3712;SDS011;1872;51.406;6.856;2022-08-21T12:41:05;5.80;;;3.63;;
3712;SDS011;1872;51.406;6.856;2022-08-21T12:43:37;10.10;;;5.87;;
3712;SDS011;1872;51.406;6.856;2022-08-21T12:46:06;4.50;;;3.23;;
3712;SDS011;1872;51.406;6.856;2022-08-21T12:48:41;3.00;;;2.70;;
3712;SDS011;1872;51.406;6.856;2022-08-21T12:51:17;6.83;;;4.67;;
3712;SDS011;1872;51.406;6.856;2022-08-21T12:53:49;2.53;;;2.27;;
3712;SDS011;1872;51.406;6.856;2022-08-21T12:56:17;3.97;;;2.23;;
3712;SDS011;1872;51.406;6.856;2022-08-21T12:58:48;6.70;;;3.40;;
3712;SDS011;1872;51.406;6.856;2022-08-21T13:03:48;3.90;;;3.50;;
3712;SDS011;1872;51.406;6.856;2022-08-21T13:06:16;5.33;;;3.03;;
3712;SDS011;1872;51.406;6.856;2022-08-21T13:08:44;3.93;;;3.53;;
3712;SDS011;1872;51.406;6.856;2022-08-21T13:11:12;4.77;;;3.17;;
3712;SDS011;1872;51.406;6.856;2022-08-21T13:13:41;3.00;;;2.33;;
3712;SDS011;1872;51.406;6.856;2022-08-21T13:16:08;4.53;;;4.17;;
3712;SDS011;1872;51.406;6.856;2022-08-21T13:18:36;2.80;;;2.43;;
3712;SDS011;1872;51.406;6.856;2022-08-21T13:21:16;3.50;;;2.97;;
3712;SDS011;1872;51.406;6.856;2022-08-21T13:23:42;3.10;;;2.77;;
3712;SDS011;1872;51.406;6.856;2022-08-21T13:26:14;4.00;;;3.00;;
3712;SDS011;1872;51.406;6.856;2022-08-21T13:28:43;3.17;;;2.40;;
3712;SDS011;1872;51.406;6.856;2022-08-21T13:31:12;2.03;;;1.83;;
3712;SDS011;1872;51.406;6.856;2022-08-21T13:33:43;3.37;;;2.77;;
3712;SDS011;1872;51.406;6.856;2022-08-21T13:36:10;2.07;;;1.87;;
3712;SDS011;1872;51.406;6.856;2022-08-21T13:38:41;2.30;;;1.90;;
3712;SDS011;1872;51.406;6.856;2022-08-21T13:43:44;4.57;;;2.40;;
3712;SDS011;1872;51.406;6.856;2022-08-21T13:46:12;2.80;;;2.40;;
3712;SDS011;1872;51.406;6.856;2022-08-21T13:48:39;2.10;;;1.90;;
3712;SDS011;1872;51.406;6.856;2022-08-21T13:51:06;2.40;;;2.13;;
3712;SDS011;1872;51.406;6.856;2022-08-21T13:53:35;1.73;;;1.63;;
3712;SDS011;1872;51.406;6.856;2022-08-21T13:56:10;2.50;;;2.30;;
3712;SDS011;1872;51.406;6.856;2022-08-21T13:58:53;2.33;;;2.13;;
3712;SDS011;1872;51.406;6.856;2022-08-21T14:01:25;2.80;;;1.83;;
3712;SDS011;1872;51.406;6.856;2022-08-21T14:03:55;3.27;;;2.30;;
3712;SDS011;1872;51.406;6.856;2022-08-21T14:06:25;3.57;;;2.43;;
3712;SDS011;1872;51.406;6.856;2022-08-21T14:08:59;3.77;;;2.10;;
3712;SDS011;1872;51.406;6.856;2022-08-21T14:11:33;5.20;;;2.43;;
3712;SDS011;1872;51.406;6.856;2022-08-21T14:14:02;2.60;;;2.37;;
3712;SDS011;1872;51.406;6.856;2022-08-21T14:16:41;3.43;;;3.23;;
3712;SDS011;1872;51.406;6.856;2022-08-21T14:19:22;4.07;;;1.67;;
3712;SDS011;1872;51.406;6.856;2022-08-21T14:21:49;2.67;;;2.17;;
3712;SDS011;1872;51.406;6.856;2022-08-21T14:26:52;1.97;;;1.70;;
3712;SDS011;1872;51.406;6.856;2022-08-21T14:29:22;2.80;;;1.70;;
3712;SDS011;1872;51.406;6.856;2022-08-21T14:31:52;2.13;;;1.70;;
3712;SDS011;1872;51.406;6.856;2022-08-21T14:34:21;2.07;;;1.90;;
3712;SDS011;1872;51.406;6.856;2022-08-21T14:36:50;2.20;;;1.97;;
3712;SDS011;1872;51.406;6.856;2022-08-21T14:39:15;2.40;;;2.20;;
3712;SDS011;1872;51.406;6.856;2022-08-21T14:41:42;2.93;;;2.70;;
3712;SDS011;1872;51.406;6.856;2022-08-21T14:44:13;2.47;;;2.17;;
3712;SDS011;1872;51.406;6.856;2022-08-21T14:46:40;2.47;;;1.80;;
3712;SDS011;1872;51.406;6.856;2022-08-21T14:49:06;2.77;;;2.07;;
3712;SDS011;1872;51.406;6.856;2022-08-21T14:51:31;2.20;;;2.00;;
3712;SDS011;1872;51.406;6.856;2022-08-21T14:53:57;3.17;;;1.97;;
3712;SDS011;1872;51.406;6.856;2022-08-21T14:56:23;1.90;;;1.80;;
3712;SDS011;1872;51.406;6.856;2022-08-21T14:58:50;1.97;;;1.87;;
3712;SDS011;1872;51.406;6.856;2022-08-21T15:01:20;1.93;;;1.80;;
3712;SDS011;1872;51.406;6.856;2022-08-21T15:03:47;1.70;;;1.60;;
3712;SDS011;1872;51.406;6.856;2022-08-21T15:06:14;4.80;;;1.83;;
3712;SDS011;1872;51.406;6.856;2022-08-21T15:08:42;2.17;;;2.03;;
3712;SDS011;1872;51.406;6.856;2022-08-21T15:11:08;2.30;;;2.03;;
3712;SDS011;1872;51.406;6.856;2022-08-21T15:13:39;5.03;;;2.37;;
3712;SDS011;1872;51.406;6.856;2022-08-21T15:16:07;1.87;;;1.77;;
3712;SDS011;1872;51.406;6.856;2022-08-21T15:18:37;1.83;;;1.67;;
3712;SDS011;1872;51.406;6.856;2022-08-21T15:21:07;1.87;;;1.70;;
3712;SDS011;1872;51.406;6.856;2022-08-21T15:23:32;4.30;;;2.20;;
3712;SDS011;1872;51.406;6.856;2022-08-21T15:25:58;1.77;;;1.67;;
3712;SDS011;1872;51.406;6.856;2022-08-21T15:28:24;2.03;;;1.67;;
3712;SDS011;1872;51.406;6.856;2022-08-21T15:30:50;3.20;;;2.03;;
3712;SDS011;1872;51.406;6.856;2022-08-21T15:33:16;3.23;;;1.80;;
3712;SDS011;1872;51.406;6.856;2022-08-21T15:35:43;6.07;;;2.20;;
3712;SDS011;1872;51.406;6.856;2022-08-21T15:38:11;2.53;;;2.33;;
3712;SDS011;1872;51.406;6.856;2022-08-21T15:40:37;5.23;;;2.20;;
3712;SDS011;1872;51.406;6.856;2022-08-21T15:43:05;2.00;;;1.83;;
3712;SDS011;1872;51.406;6.856;2022-08-21T15:45:32;3.10;;;2.00;;
3712;SDS011;1872;51.406;6.856;2022-08-21T15:47:58;3.30;;;3.00;;
3712;SDS011;1872;51.406;6.856;2022-08-21T15:50:24;2.60;;;2.10;;
3712;SDS011;1872;51.406;6.856;2022-08-21T15:52:51;2.30;;;2.20;;
3712;SDS011;1872;51.406;6.856;2022-08-21T15:55:17;2.03;;;1.93;;
3712;SDS011;1872;51.406;6.856;2022-08-21T15:57:47;2.53;;;2.33;;
3712;SDS011;1872;51.406;6.856;2022-08-21T16:00:16;2.77;;;2.10;;
3712;SDS011;1872;51.406;6.856;2022-08-21T16:02:49;2.07;;;1.80;;
3712;SDS011;1872;51.406;6.856;2022-08-21T16:05:18;2.10;;;1.90;;
3712;SDS011;1872;51.406;6.856;2022-08-21T16:07:45;4.30;;;2.30;;
3712;SDS011;1872;51.406;6.856;2022-08-21T16:10:13;2.07;;;1.87;;
3712;SDS011;1872;51.406;6.856;2022-08-21T16:12:47;1.90;;;1.80;;
3712;SDS011;1872;51.406;6.856;2022-08-21T16:15:21;2.70;;;2.13;;
3712;SDS011;1872;51.406;6.856;2022-08-21T16:17:47;3.03;;;2.27;;
3712;SDS011;1872;51.406;6.856;2022-08-21T16:20:18;1.90;;;1.80;;
3712;SDS011;1872;51.406;6.856;2022-08-21T16:22:48;2.67;;;2.20;;
3712;SDS011;1872;51.406;6.856;2022-08-21T16:25:14;2.17;;;1.97;;
3712;SDS011;1872;51.406;6.856;2022-08-21T16:27:41;3.00;;;2.13;;
3712;SDS011;1872;51.406;6.856;2022-08-21T16:30:10;4.03;;;2.83;;
3712;SDS011;1872;51.406;6.856;2022-08-21T16:32:36;2.60;;;2.13;;
3712;SDS011;1872;51.406;6.856;2022-08-21T16:35:02;2.33;;;2.13;;
3712;SDS011;1872;51.406;6.856;2022-08-21T16:37:28;2.70;;;2.33;;
3712;SDS011;1872;51.406;6.856;2022-08-21T16:39:54;4.03;;;2.03;;
3712;SDS011;1872;51.406;6.856;2022-08-21T16:42:21;2.80;;;1.90;;
3712;SDS011;1872;51.406;6.856;2022-08-21T16:44:50;2.20;;;2.10;;
3712;SDS011;1872;51.406;6.856;2022-08-21T16:47:16;3.77;;;2.20;;
3712;SDS011;1872;51.406;6.856;2022-08-21T16:49:42;7.43;;;2.40;;